sensor_id;sensor_type;location;lat;lon;timestamp;pressure;altitude;pressure_sealevel;temperature;humidity
39455;BME280;25155;41.890;23.446;2023-02-03T00:02:20;91989.31;;;-2.39;75.41
39455;BME280;25155;41.890;23.446;2023-02-03T00:04:50;91982.22;;;-2.44;76.31
39455;BME280;25155;41.890;23.446;2023-02-03T00:07:17;91977.50;;;-2.40;76.55
39455;BME280;25155;41.890;23.446;2023-02-03T00:09:45;91975.28;;;-2.30;76.29
39455;BME280;25155;41.890;23.446;2023-02-03T00:12:13;91973.31;;;-2.28;76.51
39455;BME280;25155;41.890;23.446;2023-02-03T00:14:40;91949.59;;;-2.23;76.53
39455;BME280;25155;41.890;23.446;2023-02-03T00:17:07;91932.00;;;-2.20;76.25
39455;BME280;25155;41.890;23.446;2023-02-03T00:19:34;91927.78;;;-2.08;76.17
39455;BME280;25155;41.890;23.446;2023-02-03T00:22:03;91939.22;;;-1.97;75.24
39455;BME280;25155;41.890;23.446;2023-02-03T00:24:30;91942.53;;;-1.90;74.70
39455;BME280;25155;41.890;23.446;2023-02-03T00:26:57;91935.66;;;-1.89;74.40
39455;BME280;25155;41.890;23.446;2023-02-03T00:29:24;91948.66;;;-1.84;74.70
39455;BME280;25155;41.890;23.446;2023-02-03T00:31:52;91953.81;;;-1.84;74.58
39455;BME280;25155;41.890;23.446;2023-02-03T00:34:19;91945.31;;;-1.91;74.03
39455;BME280;25155;41.890;23.446;2023-02-03T00:36:46;91956.00;;;-1.87;73.83
39455;BME280;25155;41.890;23.446;2023-02-03T00:39:16;91958.75;;;-1.89;73.48
39455;BME280;25155;41.890;23.446;2023-02-03T00:41:45;91962.91;;;-1.88;73.05
39455;BME280;25155;41.890;23.446;2023-02-03T00:44:13;91956.44;;;-1.97;73.00
39455;BME280;25155;41.890;23.446;2023-02-03T00:46:40;91943.63;;;-2.11;73.14
39455;BME280;25155;41.890;23.446;2023-02-03T00:49:08;91936.72;;;-2.10;72.97
39455;BME280;25155;41.890;23.446;2023-02-03T00:51:35;91939.09;;;-2.15;73.58
39455;BME280;25155;41.890;23.446;2023-02-03T00:54:02;91916.03;;;-2.22;74.53
39455;BME280;25155;41.890;23.446;2023-02-03T00:56:31;91921.78;;;-2.33;75.02
39455;BME280;25155;41.890;23.446;2023-02-03T00:58:58;91922.97;;;-2.36;75.61
39455;BME280;25155;41.890;23.446;2023-02-03T01:01:25;91910.16;;;-2.42;75.39
39455;BME280;25155;41.890;23.446;2023-02-03T01:03:54;91902.44;;;-2.42;75.86
39455;BME280;25155;41.890;23.446;2023-02-03T01:06:22;91899.31;;;-2.45;75.62
39455;BME280;25155;41.890;23.446;2023-02-03T01:08:50;91894.38;;;-2.46;75.54
39455;BME280;25155;41.890;23.446;2023-02-03T01:11:18;91915.28;;;-2.42;75.09
39455;BME280;25155;41.890;23.446;2023-02-03T01:13:47;91925.72;;;-2.37;75.31
39455;BME280;25155;41.890;23.446;2023-02-03T01:16:17;91936.19;;;-2.32;75.40
39455;BME280;25155;41.890;23.446;2023-02-03T01:18:45;91919.44;;;-2.41;74.72
39455;BME280;25155;41.890;23.446;2023-02-03T01:21:15;91916.09;;;-2.42;74.68
39455;BME280;25155;41.890;23.446;2023-02-03T01:23:43;91924.78;;;-2.43;73.96
39455;BME280;25155;41.890;23.446;2023-02-03T01:26:13;91921.44;;;-2.43;74.14
39455;BME280;25155;41.890;23.446;2023-02-03T01:28:41;91925.78;;;-2.51;74.25
39455;BME280;25155;41.890;23.446;2023-02-03T01:31:12;91924.22;;;-2.52;74.59
39455;BME280;25155;41.890;23.446;2023-02-03T01:33:39;91922.28;;;-2.76;75.36
39455;BME280;25155;41.890;23.446;2023-02-03T01:36:07;91928.59;;;-2.72;76.51
39455;BME280;25155;41.890;23.446;2023-02-03T01:38:36;91930.94;;;-2.64;76.44
39455;BME280;25155;41.890;23.446;2023-02-03T01:41:06;91926.81;;;-2.65;75.85
39455;BME280;25155;41.890;23.446;2023-02-03T01:43:36;91925.81;;;-2.64;75.82
39455;BME280;25155;41.890;23.446;2023-02-03T01:46:11;91911.78;;;-2.55;75.16
39455;BME280;25155;41.890;23.446;2023-02-03T01:48:46;91906.44;;;-2.53;74.90
39455;BME280;25155;41.890;23.446;2023-02-03T01:51:13;91911.97;;;-2.50;75.38
39455;BME280;25155;41.890;23.446;2023-02-03T01:53:41;91916.50;;;-2.52;75.69
39455;BME280;25155;41.890;23.446;2023-02-03T01:56:08;91902.69;;;-2.57;76.23
39455;BME280;25155;41.890;23.446;2023-02-03T01:58:38;91891.22;;;-2.48;76.31
39455;BME280;25155;41.890;23.446;2023-02-03T02:01:06;91897.72;;;-2.46;76.05
39455;BME280;25155;41.890;23.446;2023-02-03T02:03:37;91897.94;;;-2.40;76.10
39455;BME280;25155;41.890;23.446;2023-02-03T02:06:09;91896.75;;;-2.45;75.60
39455;BME280;25155;41.890;23.446;2023-02-03T02:08:37;91898.13;;;-2.42;75.67
39455;BME280;25155;41.890;23.446;2023-02-03T02:11:06;91887.28;;;-2.51;75.86
39455;BME280;25155;41.890;23.446;2023-02-03T02:13:35;91880.44;;;-2.64;76.07
39455;BME280;25155;41.890;23.446;2023-02-03T02:16:09;91890.47;;;-2.62;76.18
39455;BME280;25155;41.890;23.446;2023-02-03T02:19:07;91897.56;;;-2.57;75.27
39455;BME280;25155;41.890;23.446;2023-02-03T02:21:55;91908.44;;;-2.69;75.67
39455;BME280;25155;41.890;23.446;2023-02-03T02:28:12;91938.25;;;-2.68;76.24
39455;BME280;25155;41.890;23.446;2023-02-03T02:31:04;91946.16;;;-2.69;76.31
39455;BME280;25155;41.890;23.446;2023-02-03T02:33:40;91970.00;;;-2.69;76.63
39455;BME280;25155;41.890;23.446;2023-02-03T02:36:20;91973.00;;;-2.58;76.55
39455;BME280;25155;41.890;23.446;2023-02-03T02:38:58;91977.91;;;-2.43;75.72
39455;BME280;25155;41.890;23.446;2023-02-03T02:41:32;91989.72;;;-2.36;76.08
39455;BME280;25155;41.890;23.446;2023-02-03T02:44:11;92004.91;;;-2.34;76.06
39455;BME280;25155;41.890;23.446;2023-02-03T02:46:43;91997.81;;;-2.25;75.84
39455;BME280;25155;41.890;23.446;2023-02-03T02:49:17;92002.91;;;-2.19;76.14
39455;BME280;25155;41.890;23.446;2023-02-03T02:52:03;92005.69;;;-2.20;75.80
39455;BME280;25155;41.890;23.446;2023-02-03T02:54:32;92020.69;;;-2.24;76.13
39455;BME280;25155;41.890;23.446;2023-02-03T02:57:04;92017.72;;;-2.28;76.41
39455;BME280;25155;41.890;23.446;2023-02-03T02:59:32;92025.03;;;-2.18;76.22
39455;BME280;25155;41.890;23.446;2023-02-03T03:01:59;92026.59;;;-2.10;76.62
39455;BME280;25155;41.890;23.446;2023-02-03T03:04:30;92028.56;;;-2.05;76.21
39455;BME280;25155;41.890;23.446;2023-02-03T03:07:00;92028.16;;;-1.96;76.16
39455;BME280;25155;41.890;23.446;2023-02-03T03:09:34;92034.66;;;-1.93;75.83
39455;BME280;25155;41.890;23.446;2023-02-03T03:12:06;92038.81;;;-1.92;76.11
39455;BME280;25155;41.890;23.446;2023-02-03T03:14:36;92028.13;;;-1.89;75.78
39455;BME280;25155;41.890;23.446;2023-02-03T03:17:08;92022.56;;;-1.86;75.81
39455;BME280;25155;41.890;23.446;2023-02-03T03:19:40;92035.38;;;-1.79;75.21
39455;BME280;25155;41.890;23.446;2023-02-03T03:22:12;92050.81;;;-1.86;75.99
39455;BME280;25155;41.890;23.446;2023-02-03T03:24:42;92054.78;;;-1.90;76.19
39455;BME280;25155;41.890;23.446;2023-02-03T03:27:16;92048.84;;;-1.84;75.81
39455;BME280;25155;41.890;23.446;2023-02-03T03:29:47;92049.81;;;-1.78;75.51
39455;BME280;25155;41.890;23.446;2023-02-03T03:32:16;92062.16;;;-2.07;76.23
39455;BME280;25155;41.890;23.446;2023-02-03T03:34:44;92066.91;;;-2.11;76.53
39455;BME280;25155;41.890;23.446;2023-02-03T03:37:16;92070.84;;;-2.15;76.79
39455;BME280;25155;41.890;23.446;2023-02-03T03:39:47;92070.44;;;-2.05;76.76
39455;BME280;25155;41.890;23.446;2023-02-03T03:42:21;92072.59;;;-1.95;76.72
39455;BME280;25155;41.890;23.446;2023-02-03T03:44:56;92072.19;;;-1.85;76.26
39455;BME280;25155;41.890;23.446;2023-02-03T03:47:28;92074.34;;;-1.82;75.78
39455;BME280;25155;41.890;23.446;2023-02-03T03:50:00;92085.00;;;-1.79;75.83
39455;BME280;25155;41.890;23.446;2023-02-03T03:52:31;92081.03;;;-1.75;75.26
39455;BME280;25155;41.890;23.446;2023-02-03T03:55:04;92082.63;;;-1.80;74.90
39455;BME280;25155;41.890;23.446;2023-02-03T03:57:35;92081.25;;;-1.90;74.68
39455;BME280;25155;41.890;23.446;2023-02-03T04:00:04;92083.44;;;-1.93;74.24
39455;BME280;25155;41.890;23.446;2023-02-03T04:02:35;92074.81;;;-2.19;72.84
39455;BME280;25155;41.890;23.446;2023-02-03T04:05:07;92070.88;;;-2.35;72.44
39455;BME280;25155;41.890;23.446;2023-02-03T04:07:41;92076.41;;;-2.58;72.50
39455;BME280;25155;41.890;23.446;2023-02-03T04:10:17;92074.81;;;-2.79;73.34
39455;BME280;25155;41.890;23.446;2023-02-03T04:12:47;92073.25;;;-2.87;73.63
39455;BME280;25155;41.890;23.446;2023-02-03T04:15:14;92073.19;;;-3.07;74.34
39455;BME280;25155;41.890;23.446;2023-02-03T04:17:42;92068.03;;;-3.13;75.09
39455;BME280;25155;41.890;23.446;2023-02-03T04:20:11;92065.88;;;-3.23;74.98
39455;BME280;25155;41.890;23.446;2023-02-03T04:22:39;92055.56;;;-3.37;74.74
39455;BME280;25155;41.890;23.446;2023-02-03T04:25:07;92051.81;;;-3.47;74.51
39455;BME280;25155;41.890;23.446;2023-02-03T04:27:35;92073.50;;;-3.43;74.07
39455;BME280;25155;41.890;23.446;2023-02-03T04:30:03;92084.16;;;-3.46;73.05
39455;BME280;25155;41.890;23.446;2023-02-03T04:32:30;92098.09;;;-3.56;72.13
39455;BME280;25155;41.890;23.446;2023-02-03T04:35:02;92103.19;;;-3.62;72.25
39455;BME280;25155;41.890;23.446;2023-02-03T04:37:31;92099.31;;;-3.86;72.01
39455;BME280;25155;41.890;23.446;2023-02-03T04:39:58;92107.59;;;-3.91;71.92
39455;BME280;25155;41.890;23.446;2023-02-03T04:42:25;92102.41;;;-3.98;72.37
39455;BME280;25155;41.890;23.446;2023-02-03T04:44:53;92109.75;;;-3.88;72.04
39455;BME280;25155;41.890;23.446;2023-02-03T04:47:20;92107.97;;;-3.94;71.95
39455;BME280;25155;41.890;23.446;2023-02-03T04:49:47;92118.03;;;-3.92;72.16
39455;BME280;25155;41.890;23.446;2023-02-03T04:52:14;92115.03;;;-3.96;71.58
39455;BME280;25155;41.890;23.446;2023-02-03T04:54:43;92124.41;;;-4.10;71.43
39455;BME280;25155;41.890;23.446;2023-02-03T04:57:11;92118.47;;;-4.17;71.68
39455;BME280;25155;41.890;23.446;2023-02-03T04:59:38;92122.19;;;-4.20;71.57
39455;BME280;25155;41.890;23.446;2023-02-03T05:02:06;92128.69;;;-4.17;71.29
39455;BME280;25155;41.890;23.446;2023-02-03T05:04:33;92129.25;;;-4.22;71.41
39455;BME280;25155;41.890;23.446;2023-02-03T05:07:01;92126.16;;;-4.17;71.21
39455;BME280;25155;41.890;23.446;2023-02-03T05:09:28;92117.97;;;-4.27;71.83
39455;BME280;25155;41.890;23.446;2023-02-03T05:11:56;92124.59;;;-4.40;72.38
39455;BME280;25155;41.890;23.446;2023-02-03T05:14:24;92131.25;;;-4.45;73.21
39455;BME280;25155;41.890;23.446;2023-02-03T05:16:51;92124.06;;;-4.57;73.73
39455;BME280;25155;41.890;23.446;2023-02-03T05:19:18;92122.91;;;-4.54;73.17
39455;BME280;25155;41.890;23.446;2023-02-03T05:21:45;92118.16;;;-4.57;73.38
39455;BME280;25155;41.890;23.446;2023-02-03T05:24:13;92113.78;;;-4.63;74.06
39455;BME280;25155;41.890;23.446;2023-02-03T05:26:40;92112.97;;;-4.64;74.57
39455;BME280;25155;41.890;23.446;2023-02-03T05:29:09;92105.88;;;-4.69;74.72
39455;BME280;25155;41.890;23.446;2023-02-03T05:31:36;92107.03;;;-4.71;74.81
39455;BME280;25155;41.890;23.446;2023-02-03T05:34:03;92104.28;;;-4.70;74.96
39455;BME280;25155;41.890;23.446;2023-02-03T05:36:31;92104.47;;;-4.71;75.08
39455;BME280;25155;41.890;23.446;2023-02-03T05:38:58;92102.47;;;-4.76;75.37
39455;BME280;25155;41.890;23.446;2023-02-03T05:41:25;92095.97;;;-4.78;75.32
39455;BME280;25155;41.890;23.446;2023-02-03T05:44:11;92089.97;;;-4.86;74.74
39455;BME280;25155;41.890;23.446;2023-02-03T05:46:38;92084.31;;;-4.81;75.32
39455;BME280;25155;41.890;23.446;2023-02-03T05:49:05;92082.75;;;-4.82;74.84
39455;BME280;25155;41.890;23.446;2023-02-03T05:51:32;92095.16;;;-4.79;74.34
39455;BME280;25155;41.890;23.446;2023-02-03T05:54:00;92089.38;;;-4.88;73.83
39455;BME280;25155;41.890;23.446;2023-02-03T05:56:27;92108.50;;;-4.83;73.43
39455;BME280;25155;41.890;23.446;2023-02-03T05:58:54;92103.56;;;-4.85;72.74
39455;BME280;25155;41.890;23.446;2023-02-03T06:01:23;92115.97;;;-4.60;73.05
39455;BME280;25155;41.890;23.446;2023-02-03T06:03:50;92115.38;;;-4.06;71.84
39455;BME280;25155;41.890;23.446;2023-02-03T06:06:17;92105.06;;;-3.36;68.21
39455;BME280;25155;41.890;23.446;2023-02-03T06:08:48;92118.44;;;-2.72;66.31
39455;BME280;25155;41.890;23.446;2023-02-03T06:11:21;92100.28;;;-2.64;64.51
39455;BME280;25155;41.890;23.446;2023-02-03T06:13:50;92112.84;;;-3.09;64.92
39455;BME280;25155;41.890;23.446;2023-02-03T06:16:17;92108.22;;;-3.34;66.30
39455;BME280;25155;41.890;23.446;2023-02-03T06:18:45;92110.53;;;-3.52;67.39
39455;BME280;25155;41.890;23.446;2023-02-03T06:21:13;92110.03;;;-3.76;67.34
39455;BME280;25155;41.890;23.446;2023-02-03T06:23:40;92092.41;;;-3.92;67.45
39455;BME280;25155;41.890;23.446;2023-02-03T06:26:07;92103.25;;;-3.90;68.77
39455;BME280;25155;41.890;23.446;2023-02-03T06:28:34;92092.72;;;-3.74;69.20
39455;BME280;25155;41.890;23.446;2023-02-03T06:31:02;92094.72;;;-3.63;69.36
39455;BME280;25155;41.890;23.446;2023-02-03T06:33:30;92102.91;;;-3.39;67.52
39455;BME280;25155;41.890;23.446;2023-02-03T06:35:58;92107.91;;;-3.11;65.40
39455;BME280;25155;41.890;23.446;2023-02-03T06:38:25;92110.50;;;-2.97;65.31
39455;BME280;25155;41.890;23.446;2023-02-03T06:40:53;92112.91;;;-2.76;65.18
39455;BME280;25155;41.890;23.446;2023-02-03T06:43:20;92129.31;;;-2.57;63.06
39455;BME280;25155;41.890;23.446;2023-02-03T06:48:17;92136.22;;;-2.17;62.18
39455;BME280;25155;41.890;23.446;2023-02-03T06:50:44;92140.34;;;-1.96;61.38
39455;BME280;25155;41.890;23.446;2023-02-03T06:53:13;92141.53;;;-1.85;60.12
39455;BME280;25155;41.890;23.446;2023-02-03T06:55:41;92147.66;;;-1.86;61.81
39455;BME280;25155;41.890;23.446;2023-02-03T06:58:08;92148.88;;;-1.89;61.78
39455;BME280;25155;41.890;23.446;2023-02-03T07:00:35;92155.56;;;-1.88;63.06
39455;BME280;25155;41.890;23.446;2023-02-03T07:03:03;92163.66;;;-1.78;63.34
39455;BME280;25155;41.890;23.446;2023-02-03T07:05:30;92168.38;;;-1.68;63.05
39455;BME280;25155;41.890;23.446;2023-02-03T07:07:57;92175.31;;;-1.75;63.73
39455;BME280;25155;41.890;23.446;2023-02-03T07:10:26;92172.16;;;-1.71;64.36
39455;BME280;25155;41.890;23.446;2023-02-03T07:12:54;92169.22;;;-1.74;64.06
39455;BME280;25155;41.890;23.446;2023-02-03T07:15:21;92166.66;;;-1.87;64.67
39455;BME280;25155;41.890;23.446;2023-02-03T07:17:48;92164.50;;;-2.04;65.86
39455;BME280;25155;41.890;23.446;2023-02-03T07:20:20;92159.75;;;-2.20;65.50
39455;BME280;25155;41.890;23.446;2023-02-03T07:22:52;92158.75;;;-2.26;66.60
39455;BME280;25155;41.890;23.446;2023-02-03T07:25:19;92181.47;;;-2.03;65.81
39455;BME280;25155;41.890;23.446;2023-02-03T07:27:48;92175.53;;;-1.90;65.85
39455;BME280;25155;41.890;23.446;2023-02-03T07:30:15;92178.47;;;-1.80;66.26
39455;BME280;25155;41.890;23.446;2023-02-03T07:32:46;92178.09;;;-1.77;65.71
39455;BME280;25155;41.890;23.446;2023-02-03T07:35:14;92196.88;;;-1.96;65.31
39455;BME280;25155;41.890;23.446;2023-02-03T07:37:42;92198.47;;;-1.82;65.73
39455;BME280;25155;41.890;23.446;2023-02-03T07:40:10;92201.00;;;-1.62;65.56
39455;BME280;25155;41.890;23.446;2023-02-03T07:42:40;92203.56;;;-1.48;65.21
39455;BME280;25155;41.890;23.446;2023-02-03T07:45:11;92200.16;;;-1.36;64.18
39455;BME280;25155;41.890;23.446;2023-02-03T07:47:39;92213.97;;;-1.23;62.93
39455;BME280;25155;41.890;23.446;2023-02-03T07:50:07;92210.97;;;-1.13;62.17
39455;BME280;25155;41.890;23.446;2023-02-03T07:52:34;92212.16;;;-1.03;62.69
39455;BME280;25155;41.890;23.446;2023-02-03T07:55:01;92217.47;;;-0.98;62.12
39455;BME280;25155;41.890;23.446;2023-02-03T07:57:28;92210.25;;;-0.75;62.85
39455;BME280;25155;41.890;23.446;2023-02-03T07:59:56;92212.16;;;-0.57;63.00
39455;BME280;25155;41.890;23.446;2023-02-03T08:02:24;92216.28;;;-0.50;62.11
39455;BME280;25155;41.890;23.446;2023-02-03T08:04:51;92212.88;;;-0.50;59.64
39455;BME280;25155;41.890;23.446;2023-02-03T08:07:19;92213.03;;;-0.38;61.12
39455;BME280;25155;41.890;23.446;2023-02-03T08:09:46;92224.88;;;-0.31;60.78
39455;BME280;25155;41.890;23.446;2023-02-03T08:12:13;92217.09;;;-0.24;60.61
39455;BME280;25155;41.890;23.446;2023-02-03T08:14:40;92216.13;;;-0.23;59.85
39455;BME280;25155;41.890;23.446;2023-02-03T08:17:07;92214.06;;;-0.14;60.10
39455;BME280;25155;41.890;23.446;2023-02-03T08:19:36;92217.22;;;-0.12;58.92
39455;BME280;25155;41.890;23.446;2023-02-03T08:22:03;92217.81;;;-0.10;60.19
39455;BME280;25155;41.890;23.446;2023-02-03T08:24:31;92226.66;;;0.01;60.01
39455;BME280;25155;41.890;23.446;2023-02-03T08:26:59;92214.13;;;0.04;60.72
39455;BME280;25155;41.890;23.446;2023-02-03T08:29:26;92222.47;;;0.06;59.29
39455;BME280;25155;41.890;23.446;2023-02-03T08:31:53;92204.69;;;0.23;58.84
39455;BME280;25155;41.890;23.446;2023-02-03T08:34:23;92201.91;;;0.25;58.71
39455;BME280;25155;41.890;23.446;2023-02-03T08:36:51;92202.97;;;0.36;59.83
39455;BME280;25155;41.890;23.446;2023-02-03T08:39:19;92209.25;;;0.46;59.69
39455;BME280;25155;41.890;23.446;2023-02-03T08:41:47;92204.88;;;0.47;58.07
39455;BME280;25155;41.890;23.446;2023-02-03T08:44:14;92216.56;;;0.49;57.48
39455;BME280;25155;41.890;23.446;2023-02-03T08:46:43;92211.72;;;0.60;57.62
39455;BME280;25155;41.890;23.446;2023-02-03T08:49:10;92222.69;;;0.74;57.30
39455;BME280;25155;41.890;23.446;2023-02-03T08:51:37;92221.34;;;0.90;56.76
39455;BME280;25155;41.890;23.446;2023-02-03T08:54:05;92224.47;;;0.92;56.64
39455;BME280;25155;41.890;23.446;2023-02-03T08:56:33;92223.50;;;0.93;56.58
39455;BME280;25155;41.890;23.446;2023-02-03T08:59:00;92220.78;;;0.87;55.46
39455;BME280;25155;41.890;23.446;2023-02-03T09:01:27;92225.63;;;0.77;55.54
39455;BME280;25155;41.890;23.446;2023-02-03T09:03:55;92224.91;;;0.70;56.56
39455;BME280;25155;41.890;23.446;2023-02-03T09:06:22;92222.31;;;0.70;56.23
39455;BME280;25155;41.890;23.446;2023-02-03T09:08:50;92225.19;;;0.80;56.39
39455;BME280;25155;41.890;23.446;2023-02-03T09:11:18;92227.69;;;0.87;56.43
39455;BME280;25155;41.890;23.446;2023-02-03T09:13:45;92226.16;;;0.86;56.45
39455;BME280;25155;41.890;23.446;2023-02-03T09:16:14;92224.91;;;0.88;56.30
39455;BME280;25155;41.890;23.446;2023-02-03T09:18:43;92226.84;;;0.93;56.86
39455;BME280;25155;41.890;23.446;2023-02-03T09:21:11;92221.13;;;0.73;57.63
39455;BME280;25155;41.890;23.446;2023-02-03T09:23:40;92233.34;;;0.59;57.01
39455;BME280;25155;41.890;23.446;2023-02-03T09:26:09;92225.88;;;0.50;57.38
39455;BME280;25155;41.890;23.446;2023-02-03T09:28:38;92220.66;;;0.57;57.32
39455;BME280;25155;41.890;23.446;2023-02-03T09:31:07;92228.72;;;0.67;57.74
39455;BME280;25155;41.890;23.446;2023-02-03T09:33:35;92229.22;;;0.76;57.97
39455;BME280;25155;41.890;23.446;2023-02-03T09:36:03;92234.94;;;0.78;57.60
39455;BME280;25155;41.890;23.446;2023-02-03T09:38:32;92232.28;;;0.66;56.67
39455;BME280;25155;41.890;23.446;2023-02-03T09:41:01;92236.88;;;0.64;57.74
39455;BME280;25155;41.890;23.446;2023-02-03T09:43:34;92244.59;;;0.64;58.45
39455;BME280;25155;41.890;23.446;2023-02-03T09:46:10;92249.41;;;0.61;58.38
39455;BME280;25155;41.890;23.446;2023-02-03T09:48:41;92237.00;;;0.69;57.57
39455;BME280;25155;41.890;23.446;2023-02-03T09:51:18;92235.50;;;0.80;57.45
39455;BME280;25155;41.890;23.446;2023-02-03T09:53:53;92239.81;;;0.68;57.10
39455;BME280;25155;41.890;23.446;2023-02-03T09:56:27;92248.91;;;0.70;56.97
39455;BME280;25155;41.890;23.446;2023-02-03T09:58:56;92243.41;;;0.85;58.52
39455;BME280;25155;41.890;23.446;2023-02-03T10:01:29;92252.50;;;0.88;56.82
39455;BME280;25155;41.890;23.446;2023-02-03T10:04:03;92243.25;;;0.99;57.66
39455;BME280;25155;41.890;23.446;2023-02-03T10:06:36;92245.34;;;1.09;56.37
39455;BME280;25155;41.890;23.446;2023-02-03T10:09:10;92249.44;;;0.79;56.14
39455;BME280;25155;41.890;23.446;2023-02-03T10:11:53;92250.56;;;0.83;56.36
39455;BME280;25155;41.890;23.446;2023-02-03T10:14:36;92253.72;;;0.85;54.29
39455;BME280;25155;41.890;23.446;2023-02-03T10:17:18;92252.72;;;0.86;55.11
39455;BME280;25155;41.890;23.446;2023-02-03T10:19:51;92258.03;;;1.10;56.93
39455;BME280;25155;41.890;23.446;2023-02-03T10:22:22;92254.09;;;1.26;55.09
39455;BME280;25155;41.890;23.446;2023-02-03T10:24:55;92253.59;;;1.36;55.45
39455;BME280;25155;41.890;23.446;2023-02-03T10:27:24;92260.78;;;1.34;53.84
39455;BME280;25155;41.890;23.446;2023-02-03T10:29:55;92251.94;;;1.41;54.49
39455;BME280;25155;41.890;23.446;2023-02-03T10:32:26;92250.25;;;1.35;54.39
39455;BME280;25155;41.890;23.446;2023-02-03T10:34:54;92247.00;;;1.21;52.23
39455;BME280;25155;41.890;23.446;2023-02-03T10:37:26;92245.88;;;1.17;53.15
39455;BME280;25155;41.890;23.446;2023-02-03T10:39:55;92239.25;;;1.21;52.90
39455;BME280;25155;41.890;23.446;2023-02-03T10:42:23;92237.09;;;1.37;52.11
39455;BME280;25155;41.890;23.446;2023-02-03T10:45:11;92234.13;;;1.52;51.53
39455;BME280;25155;41.890;23.446;2023-02-03T10:47:42;92230.09;;;1.56;51.78
39455;BME280;25155;41.890;23.446;2023-02-03T10:50:15;92238.28;;;1.53;51.17
39455;BME280;25155;41.890;23.446;2023-02-03T10:52:43;92233.03;;;1.59;51.95
39455;BME280;25155;41.890;23.446;2023-02-03T10:55:29;92223.06;;;1.63;50.37
39455;BME280;25155;41.890;23.446;2023-02-03T10:57:57;92212.44;;;1.83;50.12
39455;BME280;25155;41.890;23.446;2023-02-03T11:00:33;92212.25;;;1.96;50.02
39455;BME280;25155;41.890;23.446;2023-02-03T11:03:07;92210.47;;;1.97;49.69
39455;BME280;25155;41.890;23.446;2023-02-03T11:05:40;92213.09;;;2.09;50.63
39455;BME280;25155;41.890;23.446;2023-02-03T11:08:13;92205.00;;;2.17;49.47
39455;BME280;25155;41.890;23.446;2023-02-03T11:10:40;92199.50;;;2.25;50.04
39455;BME280;25155;41.890;23.446;2023-02-03T11:13:16;92191.50;;;2.03;48.15
39455;BME280;25155;41.890;23.446;2023-02-03T11:15:54;92175.63;;;1.99;47.86
39455;BME280;25155;41.890;23.446;2023-02-03T11:18:47;92182.88;;;1.67;50.86
39455;BME280;25155;41.890;23.446;2023-02-03T11:21:19;92188.72;;;1.74;48.96
39455;BME280;25155;41.890;23.446;2023-02-03T11:23:59;92179.31;;;1.80;50.02
39455;BME280;25155;41.890;23.446;2023-02-03T11:26:30;92175.06;;;1.97;48.81
39455;BME280;25155;41.890;23.446;2023-02-03T11:29:01;92180.00;;;1.99;48.97
39455;BME280;25155;41.890;23.446;2023-02-03T11:31:32;92173.47;;;1.96;48.41
39455;BME280;25155;41.890;23.446;2023-02-03T11:34:04;92178.31;;;2.05;49.34
39455;BME280;25155;41.890;23.446;2023-02-03T11:36:33;92180.59;;;2.13;48.74
39455;BME280;25155;41.890;23.446;2023-02-03T11:39:10;92181.84;;;2.10;48.69
39455;BME280;25155;41.890;23.446;2023-02-03T11:41:38;92183.88;;;2.08;49.17
39455;BME280;25155;41.890;23.446;2023-02-03T11:44:16;92178.00;;;2.13;50.06
39455;BME280;25155;41.890;23.446;2023-02-03T11:46:48;92178.72;;;2.20;47.82
39455;BME280;25155;41.890;23.446;2023-02-03T11:52:37;92169.91;;;2.21;47.49
39455;BME280;25155;41.890;23.446;2023-02-03T11:55:15;92162.31;;;2.26;47.64
39455;BME280;25155;41.890;23.446;2023-02-03T11:57:54;92171.41;;;2.41;46.87
39455;BME280;25155;41.890;23.446;2023-02-03T12:00:35;92165.53;;;2.57;46.80
39455;BME280;25155;41.890;23.446;2023-02-03T12:03:21;92173.19;;;2.52;46.53
39455;BME280;25155;41.890;23.446;2023-02-03T12:06:09;92166.66;;;2.38;46.70
39455;BME280;25155;41.890;23.446;2023-02-03T12:08:52;92170.94;;;2.32;47.29
39455;BME280;25155;41.890;23.446;2023-02-03T12:11:31;92159.69;;;2.03;47.42
39455;BME280;25155;41.890;23.446;2023-02-03T12:14:16;92161.81;;;1.94;47.94
39455;BME280;25155;41.890;23.446;2023-02-03T12:17:05;92156.75;;;1.99;46.53
39455;BME280;25155;41.890;23.446;2023-02-03T12:19:46;92147.78;;;2.25;46.45
39455;BME280;25155;41.890;23.446;2023-02-03T12:22:24;92136.31;;;2.45;47.19
39455;BME280;25155;41.890;23.446;2023-02-03T12:24:59;92146.31;;;2.53;47.88
39455;BME280;25155;41.890;23.446;2023-02-03T12:27:40;92149.13;;;2.63;45.78
39455;BME280;25155;41.890;23.446;2023-02-03T12:30:14;92135.28;;;2.69;45.27
39455;BME280;25155;41.890;23.446;2023-02-03T12:32:49;92136.50;;;2.79;45.30
39455;BME280;25155;41.890;23.446;2023-02-03T12:35:21;92141.25;;;2.70;44.79
39455;BME280;25155;41.890;23.446;2023-02-03T12:37:57;92138.44;;;2.71;45.83
39455;BME280;25155;41.890;23.446;2023-02-03T12:40:34;92129.63;;;2.96;46.59
39455;BME280;25155;41.890;23.446;2023-02-03T12:43:20;92137.16;;;2.86;43.69
39455;BME280;25155;41.890;23.446;2023-02-03T12:45:54;92142.22;;;2.81;43.91
39455;BME280;25155;41.890;23.446;2023-02-03T12:48:27;92131.13;;;2.68;44.19
39455;BME280;25155;41.890;23.446;2023-02-03T12:51:00;92133.69;;;2.68;44.93
39455;BME280;25155;41.890;23.446;2023-02-03T12:53:32;92140.44;;;2.58;44.09
39455;BME280;25155;41.890;23.446;2023-02-03T12:56:03;92143.91;;;2.87;45.14
39455;BME280;25155;41.890;23.446;2023-02-03T12:58:36;92141.63;;;3.02;43.42
39455;BME280;25155;41.890;23.446;2023-02-03T13:01:08;92133.41;;;3.05;43.07
39455;BME280;25155;41.890;23.446;2023-02-03T13:03:41;92127.72;;;2.80;41.44
39455;BME280;25155;41.890;23.446;2023-02-03T13:06:15;92136.75;;;2.65;43.15
39455;BME280;25155;41.890;23.446;2023-02-03T13:08:52;92134.72;;;2.67;43.28
39455;BME280;25155;41.890;23.446;2023-02-03T13:11:25;92144.72;;;2.64;42.57
39455;BME280;25155;41.890;23.446;2023-02-03T13:14:00;92141.38;;;2.63;42.92
39455;BME280;25155;41.890;23.446;2023-02-03T13:16:34;92131.47;;;2.60;42.13
39455;BME280;25155;41.890;23.446;2023-02-03T13:19:08;92141.25;;;2.58;42.45
39455;BME280;25155;41.890;23.446;2023-02-03T13:21:39;92136.09;;;2.46;41.99